sensor_id;sensor_type;location;lat;lon;timestamp;temperature;humidity
9941;DHT22;5009;50.656;7.188;2022-12-18T05:02:22;-6.40;99.90
9941;DHT22;5009;50.656;7.188;2022-12-18T05:04:47;-6.40;99.90
9941;DHT22;5009;50.656;7.188;2022-12-18T05:07:13;-6.30;99.90
9941;DHT22;5009;50.656;7.188;2022-12-18T05:09:38;-6.30;99.90
9941;DHT22;5009;50.656;7.188;2022-12-18T05:12:04;-6.30;99.90
9941;DHT22;5009;50.656;7.188;2022-12-18T05:14:30;-6.30;99.90
9941;DHT22;5009;50.656;7.188;2022-12-18T05:16:55;-6.30;99.90
9941;DHT22;5009;50.656;7.188;2022-12-18T05:19:21;-6.30;99.90
9941;DHT22;5009;50.656;7.188;2022-12-18T05:21:46;-6.30;99.90
9941;DHT22;5009;50.656;7.188;2022-12-18T05:24:12;-6.30;99.90
9941;DHT22;5009;50.656;7.188;2022-12-18T05:26:37;-6.30;99.90
9941;DHT22;5009;50.656;7.188;2022-12-18T05:29:03;-6.30;99.90
9941;DHT22;5009;50.656;7.188;2022-12-18T05:31:29;-6.20;99.90
9941;DHT22;5009;50.656;7.188;2022-12-18T05:33:54;-6.20;99.90
9941;DHT22;5009;50.656;7.188;2022-12-18T05:36:20;-6.20;99.90
9941;DHT22;5009;50.656;7.188;2022-12-18T05:38:45;-6.20;99.90
9941;DHT22;5009;50.656;7.188;2022-12-18T05:41:11;-6.20;99.90
9941;DHT22;5009;50.656;7.188;2022-12-18T05:43:38;-6.20;99.90
9941;DHT22;5009;50.656;7.188;2022-12-18T05:48:12;-6.20;99.90
9941;DHT22;5009;50.656;7.188;2022-12-18T06:04:23;-6.20;99.90
9941;DHT22;5009;50.656;7.188;2022-12-18T06:06:48;-6.10;99.90
9941;DHT22;5009;50.656;7.188;2022-12-18T06:09:14;-6.10;99.90
9941;DHT22;5009;50.656;7.188;2022-12-18T06:11:39;-6.10;99.90
9941;DHT22;5009;50.656;7.188;2022-12-18T06:14:06;-6.10;99.90
9941;DHT22;5009;50.656;7.188;2022-12-18T06:16:32;-6.00;99.90
9941;DHT22;5009;50.656;7.188;2022-12-18T06:18:59;-6.00;99.90
9941;DHT22;5009;50.656;7.188;2022-12-18T06:21:26;-6.00;99.90
9941;DHT22;5009;50.656;7.188;2022-12-18T06:23:52;-5.90;99.90
9941;DHT22;5009;50.656;7.188;2022-12-18T06:26:17;-5.90;99.90
9941;DHT22;5009;50.656;7.188;2022-12-18T06:28:43;-5.90;99.90
9941;DHT22;5009;50.656;7.188;2022-12-18T06:32:43;-5.90;99.90
9941;DHT22;5009;50.656;7.188;2022-12-18T06:35:08;-5.90;99.90
9941;DHT22;5009;50.656;7.188;2022-12-18T06:37:34;-5.90;99.90
9941;DHT22;5009;50.656;7.188;2022-12-18T06:40:00;-6.00;99.90
9941;DHT22;5009;50.656;7.188;2022-12-18T06:42:26;-6.00;99.90
9941;DHT22;5009;50.656;7.188;2022-12-18T06:44:51;-6.00;99.90
9941;DHT22;5009;50.656;7.188;2022-12-18T06:47:18;-5.90;99.90
9941;DHT22;5009;50.656;7.188;2022-12-18T06:49:43;-5.90;99.90
9941;DHT22;5009;50.656;7.188;2022-12-18T06:52:09;-5.90;99.90
9941;DHT22;5009;50.656;7.188;2022-12-18T06:54:35;-5.90;99.90
9941;DHT22;5009;50.656;7.188;2022-12-18T06:57:00;-5.90;99.90
9941;DHT22;5009;50.656;7.188;2022-12-18T06:59:26;-5.90;99.90
9941;DHT22;5009;50.656;7.188;2022-12-18T07:01:51;-5.90;99.90
9941;DHT22;5009;50.656;7.188;2022-12-18T07:04:17;-5.90;99.90
9941;DHT22;5009;50.656;7.188;2022-12-18T07:06:42;-5.90;99.90
9941;DHT22;5009;50.656;7.188;2022-12-18T07:09:08;-5.90;99.90
9941;DHT22;5009;50.656;7.188;2022-12-18T07:11:33;-5.90;99.90
9941;DHT22;5009;50.656;7.188;2022-12-18T07:13:59;-5.90;99.90
9941;DHT22;5009;50.656;7.188;2022-12-18T07:16:25;-5.90;99.90
9941;DHT22;5009;50.656;7.188;2022-12-18T07:18:54;-5.80;99.90
9941;DHT22;5009;50.656;7.188;2022-12-18T07:22:43;-5.80;99.90
9941;DHT22;5009;50.656;7.188;2022-12-18T07:25:08;-5.80;99.90
9941;DHT22;5009;50.656;7.188;2022-12-18T07:27:34;-5.80;99.90
9941;DHT22;5009;50.656;7.188;2022-12-18T07:30:00;-5.80;99.90
9941;DHT22;5009;50.656;7.188;2022-12-18T07:32:43;-5.70;99.90
9941;DHT22;5009;50.656;7.188;2022-12-18T07:35:08;-5.70;99.90
9941;DHT22;5009;50.656;7.188;2022-12-18T07:37:34;-5.70;99.90
9941;DHT22;5009;50.656;7.188;2022-12-18T07:41:01;-5.70;99.90
9941;DHT22;5009;50.656;7.188;2022-12-18T07:43:27;-5.70;99.90
9941;DHT22;5009;50.656;7.188;2022-12-18T07:45:52;-5.60;99.90
9941;DHT22;5009;50.656;7.188;2022-12-18T07:53:23;-5.60;99.90
9941;DHT22;5009;50.656;7.188;2022-12-18T07:55:48;-5.60;99.90
9941;DHT22;5009;50.656;7.188;2022-12-18T07:59:53;-5.50;99.90
9941;DHT22;5009;50.656;7.188;2022-12-18T08:02:19;-5.50;99.90
9941;DHT22;5009;50.656;7.188;2022-12-18T08:04:44;-5.50;99.90
9941;DHT22;5009;50.656;7.188;2022-12-18T08:10:39;-5.40;99.90
9941;DHT22;5009;50.656;7.188;2022-12-18T08:16:36;-5.30;99.90
9941;DHT22;5009;50.656;7.188;2022-12-18T08:19:02;-5.30;99.90
9941;DHT22;5009;50.656;7.188;2022-12-18T08:22:43;-5.20;99.90
9941;DHT22;5009;50.656;7.188;2022-12-18T08:25:09;-5.20;99.90
9941;DHT22;5009;50.656;7.188;2022-12-18T08:27:35;-5.20;99.90
9941;DHT22;5009;50.656;7.188;2022-12-18T08:30:01;-5.10;99.90
9941;DHT22;5009;50.656;7.188;2022-12-18T08:32:27;-5.10;99.90
9941;DHT22;5009;50.656;7.188;2022-12-18T08:34:53;-4.90;99.90
9941;DHT22;5009;50.656;7.188;2022-12-18T08:37:19;-4.80;99.90
9941;DHT22;5009;50.656;7.188;2022-12-18T08:39:44;-4.60;99.90
9941;DHT22;5009;50.656;7.188;2022-12-18T08:42:10;-4.50;99.90
9941;DHT22;5009;50.656;7.188;2022-12-18T08:44:55;-4.20;99.90
9941;DHT22;5009;50.656;7.188;2022-12-18T08:47:20;-4.10;99.90
9941;DHT22;5009;50.656;7.188;2022-12-18T08:49:46;-4.00;99.90
9941;DHT22;5009;50.656;7.188;2022-12-18T08:52:14;-4.00;99.90
9941;DHT22;5009;50.656;7.188;2022-12-18T08:54:40;-3.90;99.90
9941;DHT22;5009;50.656;7.188;2022-12-18T08:57:05;-4.00;99.90
9941;DHT22;5009;50.656;7.188;2022-12-18T08:59:31;-3.90;99.90
9941;DHT22;5009;50.656;7.188;2022-12-18T09:04:13;-3.90;99.90
9941;DHT22;5009;50.656;7.188;2022-12-18T09:06:53;-3.90;99.90
9941;DHT22;5009;50.656;7.188;2022-12-18T09:09:19;-3.90;99.90
9941;DHT22;5009;50.656;7.188;2022-12-18T09:11:44;-3.90;99.90
9941;DHT22;5009;50.656;7.188;2022-12-18T09:14:10;-3.80;99.90
9941;DHT22;5009;50.656;7.188;2022-12-18T09:16:36;-3.80;99.90
9941;DHT22;5009;50.656;7.188;2022-12-18T09:19:03;-3.70;99.90
9941;DHT22;5009;50.656;7.188;2022-12-18T09:21:31;-3.60;99.90
9941;DHT22;5009;50.656;7.188;2022-12-18T09:23:58;-3.50;99.90
9941;DHT22;5009;50.656;7.188;2022-12-18T09:26:25;-3.40;99.90
9941;DHT22;5009;50.656;7.188;2022-12-18T09:28:51;-3.40;99.90
9941;DHT22;5009;50.656;7.188;2022-12-18T09:31:18;-3.30;99.90
9941;DHT22;5009;50.656;7.188;2022-12-18T09:33:44;-3.30;99.90
9941;DHT22;5009;50.656;7.188;2022-12-18T09:36:12;-3.20;99.90
9941;DHT22;5009;50.656;7.188;2022-12-18T09:39:00;-3.20;99.90
9941;DHT22;5009;50.656;7.188;2022-12-18T09:41:50;-3.10;99.90
9941;DHT22;5009;50.656;7.188;2022-12-18T09:47:18;-3.10;99.90
9941;DHT22;5009;50.656;7.188;2022-12-18T09:49:47;-3.00;99.90
9941;DHT22;5009;50.656;7.188;2022-12-18T09:54:58;-2.90;99.90
9941;DHT22;5009;50.656;7.188;2022-12-18T09:58:43;-2.80;99.90
9941;DHT22;5009;50.656;7.188;2022-12-18T10:01:14;-2.80;99.90
9941;DHT22;5009;50.656;7.188;2022-12-18T10:03:41;-2.90;99.90
9941;DHT22;5009;50.656;7.188;2022-12-18T10:08:54;-2.80;99.90
9941;DHT22;5009;50.656;7.188;2022-12-18T10:19:52;-2.70;99.90
9941;DHT22;5009;50.656;7.188;2022-12-18T10:22:27;-2.50;99.90
9941;DHT22;5009;50.656;7.188;2022-12-18T10:25:17;-2.60;99.90
9941;DHT22;5009;50.656;7.188;2022-12-18T10:27:45;-2.60;99.90
9941;DHT22;5009;50.656;7.188;2022-12-18T10:32:43;-2.50;99.90
9941;DHT22;5009;50.656;7.188;2022-12-18T10:35:25;-2.50;99.90
9941;DHT22;5009;50.656;7.188;2022-12-18T10:43:42;-2.50;99.90
9941;DHT22;5009;50.656;7.188;2022-12-18T10:51:05;-2.30;99.90
9941;DHT22;5009;50.656;7.188;2022-12-18T10:53:33;-2.30;99.90
9941;DHT22;5009;50.656;7.188;2022-12-18T10:55:59;-2.40;99.90
9941;DHT22;5009;50.656;7.188;2022-12-18T10:58:46;-2.30;99.90
9941;DHT22;5009;50.656;7.188;2022-12-18T11:01:17;-2.40;99.90
9941;DHT22;5009;50.656;7.188;2022-12-18T11:04:09;-2.40;99.90
9941;DHT22;5009;50.656;7.188;2022-12-18T11:09:29;-2.20;99.90
9941;DHT22;5009;50.656;7.188;2022-12-18T11:11:58;-2.20;99.90
9941;DHT22;5009;50.656;7.188;2022-12-18T11:14:48;-2.10;99.90
9941;DHT22;5009;50.656;7.188;2022-12-18T11:17:27;-2.00;99.90
9941;DHT22;5009;50.656;7.188;2022-12-18T11:20:01;-2.10;99.90
9941;DHT22;5009;50.656;7.188;2022-12-18T11:22:57;-2.10;99.90
9941;DHT22;5009;50.656;7.188;2022-12-18T11:25:24;-2.10;99.90
9941;DHT22;5009;50.656;7.188;2022-12-18T11:27:56;-2.10;99.90
9941;DHT22;5009;50.656;7.188;2022-12-18T11:31:42;-2.00;99.90
9941;DHT22;5009;50.656;7.188;2022-12-18T11:34:28;-2.00;99.90
9941;DHT22;5009;50.656;7.188;2022-12-18T11:36:58;-2.00;99.90
9941;DHT22;5009;50.656;7.188;2022-12-18T11:42:18;-2.00;99.90
9941;DHT22;5009;50.656;7.188;2022-12-18T11:49:44;-2.00;99.90
9941;DHT22;5009;50.656;7.188;2022-12-18T11:52:31;-2.00;99.90
9941;DHT22;5009;50.656;7.188;2022-12-18T11:55:00;-2.10;99.90
9941;DHT22;5009;50.656;7.188;2022-12-18T11:57:47;-2.10;99.90
9941;DHT22;5009;50.656;7.188;2022-12-18T12:00:18;-2.00;99.90
9941;DHT22;5009;50.656;7.188;2022-12-18T12:09:11;-1.90;99.90
9941;DHT22;5009;50.656;7.188;2022-12-18T12:17:44;-2.00;99.90
9941;DHT22;5009;50.656;7.188;2022-12-18T12:20:24;-2.00;99.90
9941;DHT22;5009;50.656;7.188;2022-12-18T12:23:05;-2.00;99.90
9941;DHT22;5009;50.656;7.188;2022-12-18T12:26:07;-2.00;99.90
9941;DHT22;5009;50.656;7.188;2022-12-18T12:41:06;-1.70;99.90
9941;DHT22;5009;50.656;7.188;2022-12-18T12:43:57;-1.70;99.90
9941;DHT22;5009;50.656;7.188;2022-12-18T12:46:25;-1.70;99.90
9941;DHT22;5009;50.656;7.188;2022-12-18T12:48:55;-1.60;99.90
9941;DHT22;5009;50.656;7.188;2022-12-18T12:51:28;-1.50;99.90
9941;DHT22;5009;50.656;7.188;2022-12-18T12:53:56;-1.40;99.90
9941;DHT22;5009;50.656;7.188;2022-12-18T12:56:26;-1.50;99.90
9941;DHT22;5009;50.656;7.188;2022-12-18T13:01:48;-1.50;99.90
9941;DHT22;5009;50.656;7.188;2022-12-18T13:04:19;-1.50;99.90
9941;DHT22;5009;50.656;7.188;2022-12-18T13:09:31;-1.30;99.90
9941;DHT22;5009;50.656;7.188;2022-12-18T13:12:03;-1.30;99.90
9941;DHT22;5009;50.656;7.188;2022-12-18T13:14:47;-1.30;99.90
9941;DHT22;5009;50.656;7.188;2022-12-18T13:19:51;-1.20;99.90
9941;DHT22;5009;50.656;7.188;2022-12-18T13:22:22;-1.20;99.90
9941;DHT22;5009;50.656;7.188;2022-12-18T13:24:48;-1.10;99.90
9941;DHT22;5009;50.656;7.188;2022-12-18T13:35:51;-1.10;99.90
9941;DHT22;5009;50.656;7.188;2022-12-18T13:38:23;-1.10;99.90
9941;DHT22;5009;50.656;7.188;2022-12-18T13:42:45;-1.20;99.90
9941;DHT22;5009;50.656;7.188;2022-12-18T13:45:42;-1.10;99.90
9941;DHT22;5009;50.656;7.188;2022-12-18T13:48:20;-1.10;99.90
9941;DHT22;5009;50.656;7.188;2022-12-18T13:51:03;-1.10;99.90
9941;DHT22;5009;50.656;7.188;2022-12-18T13:53:34;-1.20;99.90
9941;DHT22;5009;50.656;7.188;2022-12-18T13:56:02;-1.20;99.90
9941;DHT22;5009;50.656;7.188;2022-12-18T13:58:28;-1.40;99.90
9941;DHT22;5009;50.656;7.188;2022-12-18T14:00:54;-1.50;99.90
9941;DHT22;5009;50.656;7.188;2022-12-18T14:03:23;-1.50;99.90
9941;DHT22;5009;50.656;7.188;2022-12-18T14:06:03;-1.50;99.90
9941;DHT22;5009;50.656;7.188;2022-12-18T14:08:36;-1.50;99.90
9941;DHT22;5009;50.656;7.188;2022-12-18T14:11:04;-1.50;99.90
9941;DHT22;5009;50.656;7.188;2022-12-18T14:13:36;-1.50;99.90
9941;DHT22;5009;50.656;7.188;2022-12-18T14:16:04;-1.50;99.90
9941;DHT22;5009;50.656;7.188;2022-12-18T14:21:26;-1.50;99.90
9941;DHT22;5009;50.656;7.188;2022-12-18T14:26:32;-1.60;99.90
9941;DHT22;5009;50.656;7.188;2022-12-18T14:29:01;-1.60;99.90
9941;DHT22;5009;50.656;7.188;2022-12-18T14:31:29;-1.70;99.90
9941;DHT22;5009;50.656;7.188;2022-12-18T14:33:55;-1.70;99.90
9941;DHT22;5009;50.656;7.188;2022-12-18T14:36:27;-1.70;99.90
9941;DHT22;5009;50.656;7.188;2022-12-18T14:38:54;-1.70;99.90
9941;DHT22;5009;50.656;7.188;2022-12-18T14:41:22;-1.70;99.90
9941;DHT22;5009;50.656;7.188;2022-12-18T14:43:50;-1.70;99.90
9941;DHT22;5009;50.656;7.188;2022-12-18T14:46:37;-1.80;99.90
9941;DHT22;5009;50.656;7.188;2022-12-18T14:49:26;-1.80;99.90
9941;DHT22;5009;50.656;7.188;2022-12-18T14:51:54;-1.80;99.90
9941;DHT22;5009;50.656;7.188;2022-12-18T14:54:22;-1.80;99.90
9941;DHT22;5009;50.656;7.188;2022-12-18T14:56:51;-1.80;99.90
9941;DHT22;5009;50.656;7.188;2022-12-18T14:59:23;-1.90;99.90
9941;DHT22;5009;50.656;7.188;2022-12-18T15:02:02;-1.80;99.90
9941;DHT22;5009;50.656;7.188;2022-12-18T15:07:27;-1.90;99.90
9941;DHT22;5009;50.656;7.188;2022-12-18T15:26:13;-1.80;99.90
9941;DHT22;5009;50.656;7.188;2022-12-18T15:28:51;-1.90;99.90
9941;DHT22;5009;50.656;7.188;2022-12-18T15:31:24;-1.90;99.90
9941;DHT22;5009;50.656;7.188;2022-12-18T15:36:20;-1.90;99.90
9941;DHT22;5009;50.656;7.188;2022-12-18T15:38:47;-1.90;99.90
9941;DHT22;5009;50.656;7.188;2022-12-18T15:42:45;-1.90;99.90
9941;DHT22;5009;50.656;7.188;2022-12-18T15:45:29;-1.90;99.90
9941;DHT22;5009;50.656;7.188;2022-12-18T15:47:55;-1.90;99.90
9941;DHT22;5009;50.656;7.188;2022-12-18T15:50:21;-1.90;99.90
9941;DHT22;5009;50.656;7.188;2022-12-18T15:52:49;-2.00;99.90
9941;DHT22;5009;50.656;7.188;2022-12-18T15:55:17;-1.90;99.90
9941;DHT22;5009;50.656;7.188;2022-12-18T15:58:03;-2.00;99.90
9941;DHT22;5009;50.656;7.188;2022-12-18T16:00:29;-1.90;99.90
9941;DHT22;5009;50.656;7.188;2022-12-18T16:02:54;-2.00;99.90
9941;DHT22;5009;50.656;7.188;2022-12-18T16:05:21;-1.90;99.90
9941;DHT22;5009;50.656;7.188;2022-12-18T16:07:47;-2.00;99.90
9941;DHT22;5009;50.656;7.188;2022-12-18T16:10:13;-2.00;99.90
9941;DHT22;5009;50.656;7.188;2022-12-18T16:12:39;-2.00;99.90
9941;DHT22;5009;50.656;7.188;2022-12-18T16:15:06;-2.10;99.90
9941;DHT22;5009;50.656;7.188;2022-12-18T16:17:32;-2.10;99.90
9941;DHT22;5009;50.656;7.188;2022-12-18T16:19:57;-2.10;99.90
9941;DHT22;5009;50.656;7.188;2022-12-18T16:22:45;-2.10;99.90
9941;DHT22;5009;50.656;7.188;2022-12-18T16:25:26;-2.00;99.90
9941;DHT22;5009;50.656;7.188;2022-12-18T16:27:53;-2.10;99.90
9941;DHT22;5009;50.656;7.188;2022-12-18T16:30:25;-2.00;99.90
9941;DHT22;5009;50.656;7.188;2022-12-18T16:32:56;-2.10;99.90
9941;DHT22;5009;50.656;7.188;2022-12-18T16:35:21;-2.10;99.90
9941;DHT22;5009;50.656;7.188;2022-12-18T16:37:47;-2.10;99.90
9941;DHT22;5009;50.656;7.188;2022-12-18T16:40:14;-2.00;99.90
9941;DHT22;5009;50.656;7.188;2022-12-18T16:42:42;-2.00;99.90
9941;DHT22;5009;50.656;7.188;2022-12-18T16:45:09;-2.10;99.90
9941;DHT22;5009;50.656;7.188;2022-12-18T16:47:36;-2.00;99.90
9941;DHT22;5009;50.656;7.188;2022-12-18T16:50:02;-2.10;99.90
9941;DHT22;5009;50.656;7.188;2022-12-18T16:52:45;-2.10;99.90
9941;DHT22;5009;50.656;7.188;2022-12-18T16:55:10;-2.10;99.90
9941;DHT22;5009;50.656;7.188;2022-12-18T16:57:36;-2.10;99.90
9941;DHT22;5009;50.656;7.188;2022-12-18T17:00:02;-2.00;99.90
9941;DHT22;5009;50.656;7.188;2022-12-18T17:02:28;-2.00;99.90
9941;DHT22;5009;50.656;7.188;2022-12-18T17:04:55;-2.10;99.90
9941;DHT22;5009;50.656;7.188;2022-12-18T17:07:21;-2.10;99.90
9941;DHT22;5009;50.656;7.188;2022-12-18T17:09:46;-2.10;99.90
9941;DHT22;5009;50.656;7.188;2022-12-18T17:12:12;-2.10;99.90
9941;DHT22;5009;50.656;7.188;2022-12-18T17:14:37;-2.10;99.90
9941;DHT22;5009;50.656;7.188;2022-12-18T17:17:03;-2.10;99.90
9941;DHT22;5009;50.656;7.188;2022-12-18T17:19:29;-2.10;99.90
9941;DHT22;5009;50.656;7.188;2022-12-18T17:21:55;-2.10;99.90
9941;DHT22;5009;50.656;7.188;2022-12-18T17:24:21;-2.10;99.90
9941;DHT22;5009;50.656;7.188;2022-12-18T17:26:47;-2.10;99.90
9941;DHT22;5009;50.656;7.188;2022-12-18T17:29:15;-2.10;99.90
9941;DHT22;5009;50.656;7.188;2022-12-18T17:31:41;-2.10;99.90
9941;DHT22;5009;50.656;7.188;2022-12-18T17:34:09;-2.20;99.90
9941;DHT22;5009;50.656;7.188;2022-12-18T17:36:34;-2.10;99.90
9941;DHT22;5009;50.656;7.188;2022-12-18T17:39:01;-2.10;99.90
9941;DHT22;5009;50.656;7.188;2022-12-18T17:42:44;-2.10;99.90
9941;DHT22;5009;50.656;7.188;2022-12-18T17:45:10;-2.10;99.90
9941;DHT22;5009;50.656;7.188;2022-12-18T17:47:36;-2.20;99.90
9941;DHT22;5009;50.656;7.188;2022-12-18T17:50:01;-2.10;99.90
9941;DHT22;5009;50.656;7.188;2022-12-18T17:52:45;-2.20;99.90
9941;DHT22;5009;50.656;7.188;2022-12-18T17:55:10;-2.20;99.90
9941;DHT22;5009;50.656;7.188;2022-12-18T17:57:36;-2.20;99.90
9941;DHT22;5009;50.656;7.188;2022-12-18T18:00:05;-2.20;99.90
9941;DHT22;5009;50.656;7.188;2022-12-18T18:02:31;-2.20;99.90
9941;DHT22;5009;50.656;7.188;2022-12-18T18:04:56;-2.20;99.90
9941;DHT22;5009;50.656;7.188;2022-12-18T18:07:22;-2.20;99.90
9941;DHT22;5009;50.656;7.188;2022-12-18T18:09:48;-2.20;99.90
9941;DHT22;5009;50.656;7.188;2022-12-18T18:12:13;-2.20;99.90
9941;DHT22;5009;50.656;7.188;2022-12-18T18:14:57;-2.20;99.90
9941;DHT22;5009;50.656;7.188;2022-12-18T18:17:23;-2.20;99.90
9941;DHT22;5009;50.656;7.188;2022-12-18T18:19:48;-2.10;99.90
9941;DHT22;5009;50.656;7.188;2022-12-18T18:22:14;-2.10;99.90
9941;DHT22;5009;50.656;7.188;2022-12-18T18:24:40;-2.20;99.90
9941;DHT22;5009;50.656;7.188;2022-12-18T18:27:08;-2.20;99.90
9941;DHT22;5009;50.656;7.188;2022-12-18T18:29:33;-2.20;99.90
9941;DHT22;5009;50.656;7.188;2022-12-18T18:31:59;-2.10;99.90
9941;DHT22;5009;50.656;7.188;2022-12-18T18:34:29;-2.10;99.90
9941;DHT22;5009;50.656;7.188;2022-12-18T18:36:55;-2.10;99.90
9941;DHT22;5009;50.656;7.188;2022-12-18T18:39:21;-2.10;99.90
9941;DHT22;5009;50.656;7.188;2022-12-18T18:41:47;-2.10;99.90
9941;DHT22;5009;50.656;7.188;2022-12-18T18:44:12;-2.10;99.90
9941;DHT22;5009;50.656;7.188;2022-12-18T18:46:38;-2.10;99.90
9941;DHT22;5009;50.656;7.188;2022-12-18T18:49:04;-2.00;99.90
9941;DHT22;5009;50.656;7.188;2022-12-18T18:51:30;-2.00;99.90
9941;DHT22;5009;50.656;7.188;2022-12-18T18:53:56;-2.00;99.90
9941;DHT22;5009;50.656;7.188;2022-12-18T18:56:23;-2.00;99.90
9941;DHT22;5009;50.656;7.188;2022-12-18T18:58:51;-2.00;99.90
9941;DHT22;5009;50.656;7.188;2022-12-18T19:02:45;-2.00;99.90
9941;DHT22;5009;50.656;7.188;2022-12-18T19:05:10;-1.90;99.90
9941;DHT22;5009;50.656;7.188;2022-12-18T19:07:36;-1.90;99.90
9941;DHT22;5009;50.656;7.188;2022-12-18T19:10:01;-1.90;99.90
9941;DHT22;5009;50.656;7.188;2022-12-18T19:12:27;-1.90;99.90
9941;DHT22;5009;50.656;7.188;2022-12-18T19:15:11;-1.80;99.90
9941;DHT22;5009;50.656;7.188;2022-12-18T19:17:37;-1.80;99.90
9941;DHT22;5009;50.656;7.188;2022-12-18T19:20:04;-1.80;99.90
9941;DHT22;5009;50.656;7.188;2022-12-18T19:22:45;-1.80;99.90
9941;DHT22;5009;50.656;7.188;2022-12-18T19:25:10;-1.70;99.90
9941;DHT22;5009;50.656;7.188;2022-12-18T19:27:36;-1.80;99.90
9941;DHT22;5009;50.656;7.188;2022-12-18T19:30:04;-1.70;99.90
9941;DHT22;5009;50.656;7.188;2022-12-18T19:32:30;-1.70;99.90
9941;DHT22;5009;50.656;7.188;2022-12-18T19:34:55;-1.70;99.90
9941;DHT22;5009;50.656;7.188;2022-12-18T19:37:21;-1.70;99.90
9941;DHT22;5009;50.656;7.188;2022-12-18T19:39:47;-1.70;99.90
9941;DHT22;5009;50.656;7.188;2022-12-18T19:42:13;-1.60;99.90
9941;DHT22;5009;50.656;7.188;2022-12-18T19:44:38;-1.60;99.90
9941;DHT22;5009;50.656;7.188;2022-12-18T19:50:16;-1.60;99.90
9941;DHT22;5009;50.656;7.188;2022-12-18T19:52:41;-1.60;99.90
9941;DHT22;5009;50.656;7.188;2022-12-18T19:55:07;-1.50;99.90
9941;DHT22;5009;50.656;7.188;2022-12-18T19:57:33;-1.50;99.90
9941;DHT22;5009;50.656;7.188;2022-12-18T19:59:58;-1.50;99.90
9941;DHT22;5009;50.656;7.188;2022-12-18T20:02:24;-1.50;99.90
9941;DHT22;5009;50.656;7.188;2022-12-18T20:04:50;-1.50;99.90
9941;DHT22;5009;50.656;7.188;2022-12-18T20:07:15;-1.50;99.90
9941;DHT22;5009;50.656;7.188;2022-12-18T20:09:41;-1.40;99.90
9941;DHT22;5009;50.656;7.188;2022-12-18T20:12:06;-1.40;99.90
9941;DHT22;5009;50.656;7.188;2022-12-18T20:14:32;-1.40;99.90
9941;DHT22;5009;50.656;7.188;2022-12-18T20:16:57;-1.40;99.90
9941;DHT22;5009;50.656;7.188;2022-12-18T20:19:23;-1.40;99.90
9941;DHT22;5009;50.656;7.188;2022-12-18T20:21:49;-1.30;99.90
9941;DHT22;5009;50.656;7.188;2022-12-18T20:24:14;-1.30;99.90
9941;DHT22;5009;50.656;7.188;2022-12-18T20:26:40;-1.30;99.90
9941;DHT22;5009;50.656;7.188;2022-12-18T20:29:06;-1.30;99.90
9941;DHT22;5009;50.656;7.188;2022-12-18T20:32:45;-1.30;99.90
9941;DHT22;5009;50.656;7.188;2022-12-18T20:35:11;-1.30;99.90
9941;DHT22;5009;50.656;7.188;2022-12-18T20:37:36;-1.20;99.90
9941;DHT22;5009;50.656;7.188;2022-12-18T20:40:02;-1.20;99.90
9941;DHT22;5009;50.656;7.188;2022-12-18T20:42:28;-1.20;99.90
9941;DHT22;5009;50.656;7.188;2022-12-18T20:44:53;-1.20;99.90
9941;DHT22;5009;50.656;7.188;2022-12-18T20:47:19;-1.10;99.90
9941;DHT22;5009;50.656;7.188;2022-12-18T20:49:45;-1.10;99.90
9941;DHT22;5009;50.656;7.188;2022-12-18T20:52:46;-1.10;99.90
9941;DHT22;5009;50.656;7.188;2022-12-18T20:55:12;-1.10;99.90
9941;DHT22;5009;50.656;7.188;2022-12-18T20:57:37;-1.10;99.90
9941;DHT22;5009;50.656;7.188;2022-12-18T21:00:04;-1.10;99.90
9941;DHT22;5009;50.656;7.188;2022-12-18T21:02:30;-1.10;99.90
9941;DHT22;5009;50.656;7.188;2022-12-18T21:04:55;-1.10;99.90
9941;DHT22;5009;50.656;7.188;2022-12-18T21:07:21;-1.10;99.90
9941;DHT22;5009;50.656;7.188;2022-12-18T21:09:48;-1.10;99.90
9941;DHT22;5009;50.656;7.188;2022-12-18T21:12:14;-1.00;99.90
9941;DHT22;5009;50.656;7.188;2022-12-18T21:15:08;-1.00;99.90
9941;DHT22;5009;50.656;7.188;2022-12-18T21:17:34;-1.00;99.90
9941;DHT22;5009;50.656;7.188;2022-12-18T21:19:59;-1.00;99.90
9941;DHT22;5009;50.656;7.188;2022-12-18T21:22:25;-1.00;99.90
9941;DHT22;5009;50.656;7.188;2022-12-18T21:24:51;-0.90;99.90
9941;DHT22;5009;50.656;7.188;2022-12-18T21:27:18;-0.90;99.90
9941;DHT22;5009;50.656;7.188;2022-12-18T21:29:44;-0.80;99.90
9941;DHT22;5009;50.656;7.188;2022-12-18T21:32:10;-0.80;99.90
9941;DHT22;5009;50.656;7.188;2022-12-18T21:34:36;-0.80;99.90
9941;DHT22;5009;50.656;7.188;2022-12-18T21:37:01;-0.80;99.90
9941;DHT22;5009;50.656;7.188;2022-12-18T21:39:28;-0.80;99.90
9941;DHT22;5009;50.656;7.188;2022-12-18T21:41:54;-0.80;99.90
9941;DHT22;5009;50.656;7.188;2022-12-18T21:44:39;-0.80;99.90
9941;DHT22;5009;50.656;7.188;2022-12-18T21:47:05;-0.70;99.90
9941;DHT22;5009;50.656;7.188;2022-12-18T21:49:31;-0.70;99.90
9941;DHT22;5009;50.656;7.188;2022-12-18T21:52:45;-0.70;99.90
9941;DHT22;5009;50.656;7.188;2022-12-18T21:55:11;-0.70;99.90
9941;DHT22;5009;50.656;7.188;2022-12-18T21:57:37;-0.60;99.90
9941;DHT22;5009;50.656;7.188;2022-12-18T22:00:05;-0.60;99.90
